Time;durP1;ratioP1;P1;durP2;ratioP2;P2;SDS_P1;SDS_P2;PMS_P1;PMS_P2;Temp;Humidity;BMP_temperature;BMP_pressure;BME280_temperature;BME280_humidity;BME280_pressure;Samples;Min_cycle;Max_cycle;Signal;HPM_P1;HPM_P2
2022/02/18 00:00:54;;;;;;;12.70;6.45;;;;;;;10.94;59.54;98968.13;5126137;27;20325;-76
2022/02/18 00:03:21;;;;;;;11.05;5.82;;;;;;;10.70;60.61;98948.88;5123677;28;20023;-76
2022/02/18 00:05:47;;;;;;;10.48;6.07;;;;;;;10.94;59.94;98965.47;5126592;28;20048;-75
2022/02/18 00:08:13;;;;;;;14.48;5.55;;;;;;;11.08;59.10;98969.94;5136656;28;20027;-75
2022/02/18 00:10:40;;;;;;;13.10;5.78;;;;;;;10.98;59.12;98964.94;5141713;27;20046;-75
2022/02/18 00:13:06;;;;;;;22.02;10.25;;;;;;;10.84;59.02;98944.56;5133932;27;20107;-77
2022/02/18 00:15:32;;;;;;;16.15;5.65;;;;;;;10.93;59.14;98972.59;5127396;27;20292;-75
2022/02/18 00:17:57;;;;;;;7.82;4.30;;;;;;;10.93;58.65;98963.84;5135830;27;20035;-75
2022/02/18 00:20:23;;;;;;;15.70;5.25;;;;;;;11.32;57.41;98979.41;5140702;27;20023;-75
2022/02/18 00:22:49;;;;;;;16.85;5.10;;;;;;;11.17;57.25;98990.88;5132221;27;20023;-75
2022/02/18 00:25:14;;;;;;;12.93;4.82;;;;;;;11.17;57.99;98992.69;5127915;27;20051;-75
2022/02/18 00:27:43;;;;;;;10.63;4.75;;;;;;;11.23;57.30;98988.47;5128622;27;21034;-77
2022/02/18 00:30:09;;;;;;;10.80;4.40;;;;;;;10.95;57.46;98943.28;5123689;27;20031;-76
2022/02/18 00:32:35;;;;;;;18.17;4.65;;;;;;;11.37;57.19;98995.59;5134239;27;20035;-76
2022/02/18 00:35:02;;;;;;;16.55;5.32;;;;;;;11.36;56.37;98981.50;5126862;27;20038;-75
2022/02/18 00:37:27;;;;;;;15.57;5.22;;;;;;;11.42;57.08;98995.84;5126496;27;20030;-78
2022/02/18 00:39:55;;;;;;;26.20;5.45;;;;;;;11.26;57.62;98972.22;5126485;27;20294;-78
2022/02/18 00:42:21;;;;;;;60.65;8.15;;;;;;;11.38;57.53;99008.66;5123697;28;20187;-78
2022/02/18 00:44:46;;;;;;;24.65;5.90;;;;;;;11.42;56.55;98988.72;5128637;27;20031;-78
2022/02/18 00:47:12;;;;;;;25.50;5.50;;;;;;;11.50;56.02;98966.63;5132884;27;20095;-79
2022/02/18 00:49:37;;;;;;;18.45;5.00;;;;;;;11.54;56.31;98989.09;5126958;27;20325;-78
2022/02/18 00:52:03;;;;;;;18.77;5.03;;;;;;;11.59;56.20;99001.78;5131224;27;20031;-78
2022/02/18 00:54:29;;;;;;;20.25;4.80;;;;;;;11.58;55.97;98994.84;5128389;27;20102;-78
2022/02/18 00:56:54;;;;;;;16.42;5.32;;;;;;;11.31;56.63;98970.66;5130295;27;20025;-78
2022/02/18 00:59:20;;;;;;;8.27;4.78;;;;;;;11.51;56.19;99008.03;5128891;27;20032;-78
2022/02/18 01:01:46;;;;;;;10.18;4.68;;;;;;;11.37;55.57;98967.25;5129040;27;20036;-78
2022/02/18 01:04:12;;;;;;;15.57;4.22;;;;;;;11.55;56.31;98998.69;5136706;27;20099;-78
2022/02/18 01:06:37;;;;;;;9.70;4.85;;;;;;;11.44;56.09;98989.41;5128905;27;20428;-78
2022/02/18 01:09:03;;;;;;;17.77;4.53;;;;;;;11.57;55.60;98991.38;5125635;27;20073;-78
2022/02/18 01:11:30;;;;;;;13.05;3.92;;;;;;;11.56;55.03;98987.09;5124158;28;20048;-78
2022/02/18 01:13:55;;;;;;;13.35;3.92;;;;;;;11.48;55.22;98990.66;5124965;27;20044;-79
2022/02/18 01:16:21;;;;;;;11.75;4.70;;;;;;;11.59;54.87;98985.88;5132611;27;20034;-78
2022/02/18 01:18:46;;;;;;;13.98;4.80;;;;;;;11.69;55.10;99011.09;5126919;27;20035;-78
2022/02/18 01:21:12;;;;;;;15.20;4.32;;;;;;;11.54;55.37;98994.41;5133546;27;20027;-78
2022/02/18 01:23:37;;;;;;;11.38;4.55;;;;;;;11.66;55.33;99002.69;5131640;27;20413;-78
2022/02/18 01:26:04;;;;;;;9.75;4.25;;;;;;;11.58;55.52;98993.03;5128268;27;20050;-78
2022/02/18 01:28:30;;;;;;;9.40;4.28;;;;;;;11.50;55.87;98982.53;5127422;27;20232;-78
2022/02/18 01:30:56;;;;;;;12.55;4.53;;;;;;;11.60;55.43;98998.97;5129128;27;20035;-78
2022/02/18 01:33:22;;;;;;;9.50;4.30;;;;;;;11.55;56.08;98989.91;5130089;27;20035;-79
2022/02/18 01:35:48;;;;;;;18.83;4.82;;;;;;;11.70;55.34;99002.13;5133294;27;20042;-78
2022/02/18 01:38:14;;;;;;;12.85;4.90;;;;;;;11.66;55.42;99002.69;5128560;27;20031;-78
2022/02/18 01:40:40;;;;;;;8.50;4.63;;;;;;;11.67;55.29;99018.41;5133569;27;20035;-78
2022/02/18 01:43:06;;;;;;;9.75;4.93;;;;;;;11.52;55.63;98993.75;5127353;27;20039;-78
2022/02/18 01:45:31;;;;;;;8.13;4.95;;;;;;;11.63;55.83;99025.09;5134443;27;20087;-78
2022/02/18 01:47:57;;;;;;;10.30;4.28;;;;;;;11.52;56.29;99012.31;5139076;27;20031;-78
2022/02/18 01:50:22;;;;;;;11.30;4.90;;;;;;;11.48;56.35;99019.81;5128135;27;20144;-78
2022/02/18 01:52:50;;;;;;;11.40;5.20;;;;;;;11.44;56.42;99013.25;5123520;28;20032;-78
2022/02/18 01:55:18;;;;;;;7.68;4.60;;;;;;;11.38;56.68;99016.59;5124150;27;20051;-79
2022/02/18 01:57:51;;;;;;;6.63;4.25;;;;;;;11.52;55.71;99031.72;5129503;27;20086;-78
2022/02/18 02:00:22;;;;;;;10.95;3.58;;;;;;;11.47;56.33;99036.75;5129189;27;20084;-78
2022/02/18 02:02:49;;;;;;;8.10;4.30;;;;;;;11.47;56.39;99041.22;5124612;27;20015;-78
2022/02/18 02:05:14;;;;;;;8.93;4.97;;;;;;;11.53;56.63;99043.13;5131484;27;20035;-78
2022/02/18 02:07:41;;;;;;;10.07;4.95;;;;;;;11.50;56.78;99048.81;5133200;27;20069;-78
2022/02/18 02:10:08;;;;;;;13.93;4.78;;;;;;;11.40;56.36;99041.09;5135775;27;20110;-78
2022/02/18 02:12:42;;;;;;;8.43;4.85;;;;;;;11.45;56.17;99032.63;5147188;27;20092;-78
2022/02/18 02:15:09;;;;;;;8.50;4.97;;;;;;;11.68;55.83;99057.19;5126169;27;20031;-79
2022/02/18 02:17:35;;;;;;;10.68;4.43;;;;;;;11.66;55.19;99051.25;5129737;27;20081;-79
2022/02/18 02:20:05;;;;;;;10.15;4.93;;;;;;;11.64;55.56;99060.41;5132203;27;20043;-78
2022/02/18 02:22:31;;;;;;;10.77;5.03;;;;;;;11.45;56.02;99044.06;5128440;27;20393;-78
2022/02/18 02:24:58;;;;;;;10.27;4.80;;;;;;;11.58;56.37;99061.97;5129187;27;20027;-78
2022/02/18 02:27:24;;;;;;;13.80;5.43;;;;;;;11.47;55.64;99057.94;5128631;27;20062;-78
2022/02/18 02:29:50;;;;;;;9.38;4.70;;;;;;;11.61;55.48;99071.38;5127726;27;20039;-78
2022/02/18 02:32:15;;;;;;;12.05;4.78;;;;;;;11.47;56.30;99081.00;5134504;27;20217;-79
2022/02/18 02:34:42;;;;;;;12.45;5.05;;;;;;;11.57;56.60;99091.31;5129390;27;20280;-79
2022/02/18 02:37:08;;;;;;;12.93;4.80;;;;;;;11.58;56.11;99099.09;5133417;27;20092;-78
2022/02/18 02:39:33;;;;;;;12.32;5.30;;;;;;;11.65;56.05;99092.03;5134689;27;20097;-78
2022/02/18 02:42:02;;;;;;;8.32;4.47;;;;;;;11.52;55.25;99065.34;5128931;27;20098;-78
2022/02/18 02:44:28;;;;;;;12.57;5.10;;;;;;;11.65;55.66;99107.94;5129010;27;20074;-78
2022/02/18 02:46:54;;;;;;;12.73;5.18;;;;;;;11.47;55.96;99110.97;5128984;27;20039;-78
2022/02/18 02:49:20;;;;;;;12.73;5.00;;;;;;;11.31;56.91;99148.22;5132784;27;20038;-78
2022/02/18 02:51:46;;;;;;;16.33;6.45;;;;;;;11.00;57.76;99144.88;5129429;27;20028;-78
2022/02/18 02:54:12;;;;;;;13.10;6.32;;;;;;;10.93;59.14;99178.38;5131230;27;20317;-79
2022/02/18 02:56:37;;;;;;;15.30;6.10;;;;;;;11.17;58.45;99175.53;5126855;27;20023;-78
2022/02/18 02:59:03;;;;;;;12.15;5.97;;;;;;;11.01;59.56;99184.44;5134081;27;20089;-78
2022/02/18 03:01:28;;;;;;;14.45;6.25;;;;;;;10.82;59.89;99159.28;5129762;27;20041;-78
2022/02/18 03:03:54;;;;;;;10.00;5.25;;;;;;;11.13;58.60;99172.41;5126169;27;20046;-78
2022/02/18 03:06:19;;;;;;;11.93;5.22;;;;;;;10.73;59.54;99155.03;5130405;27;20067;-78
2022/02/18 03:08:45;;;;;;;14.40;5.20;;;;;;;10.60;60.32;99185.75;5126697;27;20080;-78
2022/02/18 03:11:16;;;;;;;12.55;4.93;;;;;;;10.57;61.18;99180.81;5129354;27;20046;-78
2022/02/18 03:13:47;;;;;;;12.18;6.13;;;;;;;10.70;61.12;99212.81;5133874;27;20031;-79
2022/02/18 03:16:14;;;;;;;10.40;5.00;;;;;;;10.73;60.65;99226.53;5127286;27;20031;-79
2022/02/18 03:18:39;;;;;;;14.82;5.57;;;;;;;10.67;61.08;99218.47;5130760;27;20035;-79
2022/02/18 03:21:05;;;;;;;9.75;5.38;;;;;;;10.79;60.56;99225.81;5131045;27;20054;-78
2022/02/18 03:23:31;;;;;;;10.77;4.97;;;;;;;10.90;60.79;99232.53;5143154;27;20063;-78
2022/02/18 03:25:57;;;;;;;11.73;4.95;;;;;;;10.97;59.69;99238.78;5140096;27;20140;-78
2022/02/18 03:28:22;;;;;;;7.28;4.72;;;;;;;10.82;58.88;99228.13;5131641;27;20197;-78
2022/02/18 03:30:48;;;;;;;7.15;5.05;;;;;;;10.95;58.56;99232.00;5130265;27;20046;-78
2022/02/18 03:33:14;;;;;;;8.05;4.22;;;;;;;11.27;58.10;99246.84;5131672;27;20039;-78
2022/02/18 03:35:40;;;;;;;9.05;4.47;;;;;;;11.20;57.90;99244.06;5124222;27;20047;-79
2022/02/18 03:38:06;;;;;;;7.88;4.28;;;;;;;11.30;57.89;99259.72;5130932;27;20229;-79
2022/02/18 03:40:32;;;;;;;12.68;4.43;;;;;;;11.02;57.40;99249.66;5128294;27;20049;-77
2022/02/18 03:42:57;;;;;;;9.43;4.05;;;;;;;11.21;57.58;99293.41;5129380;27;20312;-78
2022/02/18 03:45:23;;;;;;;14.90;5.20;;;;;;;10.98;57.82;99304.00;5130081;27;20368;-78
2022/02/18 03:47:48;;;;;;;8.85;4.22;;;;;;;10.80;58.73;99304.28;5129948;27;20035;-78
2022/02/18 03:50:14;;;;;;;7.53;3.67;;;;;;;11.13;56.86;99326.09;5130115;27;20039;-78
2022/02/18 03:52:39;;;;;;;7.40;3.95;;;;;;;11.24;54.34;99326.69;5126790;27;20042;-78
2022/02/18 03:55:05;;;;;;;15.02;2.25;;;;;;;11.30;51.81;99313.56;5130707;27;20048;-78
2022/02/18 03:57:31;;;;;;;8.07;2.95;;;;;;;11.30;52.21;99308.25;5125829;28;20035;-79
2022/02/18 03:59:56;;;;;;;8.25;2.30;;;;;;;11.44;52.00;99320.78;5130635;28;20036;-78
2022/02/18 04:02:22;;;;;;;8.20;2.63;;;;;;;11.52;52.31;99331.31;5126289;27;20091;-78
2022/02/18 04:04:47;;;;;;;7.85;2.25;;;;;;;11.53;53.15;99337.44;5123929;28;20317;-78
2022/02/18 04:07:13;;;;;;;10.95;2.85;;;;;;;11.54;53.52;99346.22;5134489;27;20038;-78
2022/02/18 04:09:38;;;;;;;5.68;2.50;;;;;;;11.40;54.33;99356.56;5137102;27;20043;-77
2022/02/18 04:12:05;;;;;;;5.03;2.50;;;;;;;11.31;54.87;99359.44;5133573;27;20042;-78
2022/02/18 04:14:31;;;;;;;4.35;1.83;;;;;;;11.23;52.68;99376.22;5131667;27;20050;-78
2022/02/18 04:16:56;;;;;;;6.32;2.00;;;;;;;11.19;53.70;99380.22;5131760;27;20274;-78
2022/02/18 04:19:22;;;;;;;3.70;1.83;;;;;;;11.13;54.05;99388.88;5131098;27;20238;-78
2022/02/18 04:21:47;;;;;;;6.80;1.42;;;;;;;11.18;52.22;99399.78;5126839;27;20023;-78
2022/02/18 04:24:13;;;;;;;2.58;1.40;;;;;;;11.05;52.33;99395.03;5132869;27;20075;-78
2022/02/18 04:26:38;;;;;;;6.32;1.80;;;;;;;11.11;50.90;99420.00;5129746;27;20047;-79
2022/02/18 04:29:04;;;;;;;2.65;1.20;;;;;;;10.99;51.33;99416.94;5139087;27;20033;-78
2022/02/18 04:31:29;;;;;;;3.75;1.23;;;;;;;11.11;51.09;99436.75;5145816;27;20415;-78
2022/02/18 04:33:54;;;;;;;5.25;1.58;;;;;;;11.00;50.99;99450.38;5137954;27;20035;-77
2022/02/18 04:36:20;;;;;;;2.80;0.90;;;;;;;10.97;50.89;99466.59;5134886;27;20042;-77
2022/02/18 04:38:45;;;;;;;3.40;0.68;;;;;;;11.11;51.50;99475.66;5131674;27;20216;-78
2022/02/18 04:41:11;;;;;;;8.45;1.15;;;;;;;11.20;50.97;99495.81;5128272;27;20083;-78
2022/02/18 04:43:36;;;;;;;0.82;0.60;;;;;;;11.03;50.00;99505.66;5125915;27;20024;-79
2022/02/18 04:46:02;;;;;;;2.80;0.70;;;;;;;11.02;49.60;99505.84;5135617;27;20035;-78
2022/02/18 04:48:28;;;;;;;2.80;0.63;;;;;;;11.04;50.03;99517.09;5129353;27;20031;-78
2022/02/18 04:50:53;;;;;;;2.30;0.50;;;;;;;11.17;49.38;99539.41;5124743;28;20066;-78
2022/02/18 04:53:19;;;;;;;6.68;0.85;;;;;;;11.08;50.24;99534.28;5127011;27;20317;-78
2022/02/18 04:55:44;;;;;;;3.80;0.70;;;;;;;11.10;49.16;99551.69;5146119;27;20031;-77
2022/02/18 04:58:10;;;;;;;0.75;0.40;;;;;;;11.23;49.09;99545.00;5143568;27;20035;-77
2022/02/18 05:00:35;;;;;;;1.25;0.70;;;;;;;11.27;48.91;99583.44;5133113;27;20031;-78
2022/02/18 05:03:00;;;;;;;6.93;0.68;;;;;;;11.19;49.26;99579.81;5132176;27;20100;-79
2022/02/18 05:05:26;;;;;;;4.05;1.08;;;;;;;11.10;48.83;99580.00;5131540;27;20049;-78
2022/02/18 05:07:51;;;;;;;2.28;1.00;;;;;;;10.97;48.27;99583.16;5133552;27;20031;-78
2022/02/18 05:10:17;;;;;;;6.57;0.98;;;;;;;10.80;47.36;99606.22;5129202;27;20042;-78
2022/02/18 05:12:42;;;;;;;3.55;0.57;;;;;;;10.70;47.39;99599.44;5128331;27;20031;-77
2022/02/18 05:15:08;;;;;;;3.08;0.77;;;;;;;10.52;47.03;99579.25;5129005;27;20047;-78
2022/02/18 05:17:34;;;;;;;8.23;0.82;;;;;;;10.41;46.22;99582.22;5140091;27;20031;-77
2022/02/18 05:20:00;;;;;;;5.60;0.85;;;;;;;10.60;47.74;99596.13;5145035;27;20110;-77
2022/02/18 05:22:26;;;;;;;6.50;1.17;;;;;;;10.58;50.26;99585.69;5137119;27;20023;-77
2022/02/18 05:24:51;;;;;;;11.10;0.88;;;;;;;10.57;50.77;99594.63;5134296;27;20062;-77
2022/02/18 05:27:17;;;;;;;4.95;1.20;;;;;;;10.45;49.25;99588.84;5126195;27;20023;-78
2022/02/18 05:29:42;;;;;;;14.85;2.50;;;;;;;10.43;48.67;99568.81;5130774;27;20039;-77
2022/02/18 05:32:08;;;;;;;3.42;1.35;;;;;;;10.37;47.83;99558.88;5130052;27;20099;-78
2022/02/18 05:34:34;;;;;;;16.00;1.45;;;;;;;10.41;47.22;99560.22;5132622;27;20259;-78
2022/02/18 05:37:00;;;;;;;1.40;0.80;;;;;;;10.30;47.40;99544.63;5127949;27;20070;-78
2022/02/18 05:39:26;;;;;;;7.22;1.00;;;;;;;10.64;47.49;99584.19;5133826;27;20241;-77
2022/02/18 05:41:51;;;;;;;6.30;1.10;;;;;;;10.45;49.10;99565.03;5127376;27;20095;-78
2022/02/18 05:44:17;;;;;;;9.48;1.30;;;;;;;10.61;51.28;99592.47;5125714;27;20035;-78
2022/02/18 05:46:42;;;;;;;9.10;1.52;;;;;;;10.52;52.45;99605.72;5138908;27;20031;-78
2022/02/18 05:49:08;;;;;;;7.43;1.33;;;;;;;10.50;53.48;99588.34;5144895;27;20108;-78
2022/02/18 05:51:34;;;;;;;8.25;1.52;;;;;;;10.50;53.10;99596.28;5145327;27;20079;-78
2022/02/18 05:54:00;;;;;;;9.90;1.70;;;;;;;10.43;53.97;99601.41;5161273;27;20084;-78
2022/02/18 05:56:26;;;;;;;6.38;1.30;;;;;;;10.47;53.43;99596.63;5144718;27;20317;-78
2022/02/18 05:58:51;;;;;;;5.43;1.45;;;;;;;10.55;53.21;99612.50;5145354;27;20039;-78
2022/02/18 06:01:20;;;;;;;7.90;1.38;;;;;;;10.57;52.51;99599.09;5143772;27;20090;-79
2022/02/18 06:03:47;;;;;;;6.55;1.50;;;;;;;10.56;51.39;99598.28;5126912;27;20032;-77
2022/02/18 06:06:12;;;;;;;3.20;1.50;;;;;;;10.66;51.47;99593.63;5125168;28;20080;-77
2022/02/18 06:08:38;;;;;;;8.07;1.58;;;;;;;10.55;50.52;99596.63;5123939;27;20255;-77
2022/02/18 06:11:03;;;;;;;7.55;2.85;;;;;;;10.45;51.43;99566.84;5123761;28;20034;-77
2022/02/18 06:13:28;;;;;;;7.18;2.50;;;;;;;10.43;50.95;99608.53;5125140;27;20043;-78
2022/02/18 06:15:54;;;;;;;19.52;1.67;;;;;;;10.56;50.87;99606.22;5125195;27;20099;-79
2022/02/18 06:18:19;;;;;;;16.00;1.73;;;;;;;10.50;50.51;99626.22;5123755;28;20028;-78
2022/02/18 06:20:45;;;;;;;6.63;2.40;;;;;;;10.72;50.58;99632.69;5125427;28;20036;-78
2022/02/18 06:23:10;;;;;;;12.02;1.80;;;;;;;10.65;49.59;99617.63;5124891;27;20020;-78
2022/02/18 06:25:35;;;;;;;4.30;1.52;;;;;;;10.66;49.51;99646.59;5124789;28;20103;-78
2022/02/18 06:28:05;;;;;;;21.73;2.00;;;;;;;10.69;48.93;99653.38;5123044;27;20258;-78
2022/02/18 06:30:31;;;;;;;2.00;1.40;;;;;;;10.79;48.24;99649.59;5125072;27;20051;-78
2022/02/18 06:32:58;;;;;;;11.85;3.40;;;;;;;10.66;47.79;99622.75;5131792;27;20031;-78
2022/02/18 06:35:23;;;;;;;7.25;2.47;;;;;;;11.10;47.50;99665.63;5144770;27;20049;-78
2022/02/18 06:37:49;;;;;;;9.45;1.50;;;;;;;11.11;46.47;99661.16;5144394;27;20094;-78
2022/02/18 06:40:14;;;;;;;23.17;2.60;;;;;;;11.28;46.36;99673.38;5144408;27;20043;-77
2022/02/18 06:42:41;;;;;;;7.45;1.60;;;;;;;11.35;45.66;99665.59;5144465;27;20027;-78
2022/02/18 06:45:07;;;;;;;7.55;2.10;;;;;;;11.25;45.58;99646.38;5124796;28;20040;-78
2022/02/18 06:47:32;;;;;;;13.52;1.42;;;;;;;11.43;44.63;99637.22;5144252;27;20023;-78
2022/02/18 06:49:58;;;;;;;10.95;1.67;;;;;;;11.90;43.97;99675.41;5144268;27;20407;-77
2022/02/18 06:52:23;;;;;;;7.03;1.30;;;;;;;12.11;43.40;99649.94;5144101;27;20027;-78
2022/02/18 06:54:48;;;;;;;18.85;2.53;;;;;;;12.53;42.38;99671.78;5137565;27;20027;-79
2022/02/18 06:57:14;;;;;;;14.30;3.10;;;;;;;12.91;41.69;99670.84;5122441;28;20091;-78
2022/02/18 06:59:39;;;;;;;6.78;1.60;;;;;;;13.06;40.85;99670.88;5122802;27;20095;-78
2022/02/18 07:02:05;;;;;;;25.30;2.80;;;;;;;12.55;40.85;99661.81;5130170;27;20105;-78
2022/02/18 07:04:31;;;;;;;8.48;1.70;;;;;;;12.22;42.09;99662.00;5134958;27;20027;-78
2022/02/18 07:06:56;;;;;;;4.47;1.77;;;;;;;12.14;42.22;99656.72;5136080;27;20041;-79
2022/02/18 07:09:22;;;;;;;7.78;1.92;;;;;;;12.20;42.68;99690.53;5135070;27;20043;-78
2022/02/18 07:11:47;;;;;;;7.20;1.77;;;;;;;12.28;43.28;99692.31;5135994;27;20019;-78
2022/02/18 07:14:12;;;;;;;9.85;1.80;;;;;;;12.31;43.20;99698.13;5135309;27;20054;-78
2022/02/18 07:16:42;;;;;;;3.00;1.77;;;;;;;12.13;43.77;99682.44;5134520;27;20019;-78
2022/02/18 07:19:12;;;;;;;7.10;2.72;;;;;;;12.07;44.28;99688.44;5125036;27;20047;-78
2022/02/18 07:21:38;;;;;;;7.90;2.67;;;;;;;11.82;44.74;99685.06;5129170;27;21287;-78
2022/02/18 07:24:11;;;;;;;14.88;2.80;;;;;;;11.79;45.28;99695.19;5125846;27;20071;-77
2022/02/18 07:26:37;;;;;;;7.70;1.88;;;;;;;11.65;45.89;99683.44;5125087;27;20353;-78
2022/02/18 07:29:03;;;;;;;5.97;2.40;;;;;;;11.57;46.76;99664.06;5130067;27;20047;-78
2022/02/18 07:31:29;;;;;;;4.78;2.00;;;;;;;11.49;46.65;99675.53;5134851;27;20043;-78
2022/02/18 07:33:54;;;;;;;5.47;2.72;;;;;;;11.62;46.06;99699.69;5137190;27;20035;-77
2022/02/18 07:36:20;;;;;;;7.30;1.80;;;;;;;11.52;46.58;99702.53;5134334;27;20019;-78
2022/02/18 07:38:45;;;;;;;13.63;1.90;;;;;;;11.51;46.86;99698.22;5136494;27;20022;-78
2022/02/18 07:41:10;;;;;;;8.77;2.55;;;;;;;11.61;46.98;99705.16;5134751;27;20345;-77
2022/02/18 07:43:36;;;;;;;7.93;1.90;;;;;;;11.68;47.60;99690.22;5134543;27;20076;-77
2022/02/18 07:46:02;;;;;;;4.88;1.80;;;;;;;11.75;45.19;99689.38;5135825;27;20046;-78
2022/02/18 07:48:28;;;;;;;9.50;1.80;;;;;;;11.83;44.17;99709.78;5136310;27;20030;-78
2022/02/18 07:50:54;;;;;;;6.40;1.63;;;;;;;12.13;42.06;99701.03;5135613;27;20035;-78
2022/02/18 07:53:19;;;;;;;9.73;2.22;;;;;;;12.45;42.15;99692.06;5135777;27;20036;-79
2022/02/18 07:55:45;;;;;;;9.35;1.67;;;;;;;12.82;40.46;99711.78;5135548;27;20031;-78
2022/02/18 07:58:11;;;;;;;3.70;0.68;;;;;;;12.73;40.37;99707.53;5135068;27;20039;-78
2022/02/18 08:00:38;;;;;;;11.68;1.38;;;;;;;12.87;39.76;99722.69;5136227;28;20069;-78
2022/02/18 08:03:03;;;;;;;9.23;1.13;;;;;;;13.30;38.92;99707.91;5133593;27;20082;-78
2022/02/18 08:05:29;;;;;;;6.15;1.13;;;;;;;13.34;38.16;99708.38;5136218;28;20080;-78
2022/02/18 08:07:57;;;;;;;14.98;1.60;;;;;;;12.91;37.83;99712.53;5135380;28;20015;-78
2022/02/18 08:10:23;;;;;;;4.10;1.30;;;;;;;12.82;38.42;99705.63;5134788;28;20099;-78
2022/02/18 08:12:48;;;;;;;4.50;1.30;;;;;;;13.06;37.91;99700.13;5135340;27;20031;-78
2022/02/18 08:15:14;;;;;;;7.38;1.35;;;;;;;13.02;37.57;99704.97;5135164;27;20043;-77
2022/02/18 08:17:39;;;;;;;11.55;1.50;;;;;;;13.31;36.91;99682.97;5141690;28;20035;-77
2022/02/18 08:20:07;;;;;;;5.78;1.25;;;;;;;13.50;36.34;99697.56;5139384;27;20190;-72
2022/02/18 08:22:32;;;;;;;4.80;1.33;;;;;;;13.42;36.61;99666.56;5140854;28;20307;-78
2022/02/18 08:24:59;;;;;;;4.03;0.95;;;;;;;13.70;35.06;99687.25;5140036;27;20038;-78
2022/02/18 08:27:25;;;;;;;2.33;0.98;;;;;;;13.70;35.06;99666.78;5142516;28;20035;-78
2022/02/18 08:29:50;;;;;;;4.07;1.58;;;;;;;13.76;35.49;99685.69;5139362;27;20345;-78
2022/02/18 08:32:16;;;;;;;5.18;1.52;;;;;;;13.95;34.88;99683.28;5140062;28;20079;-78
2022/02/18 08:34:41;;;;;;;6.90;2.72;;;;;;;14.03;34.56;99679.69;5139687;27;20336;-78
2022/02/18 08:37:07;;;;;;;8.90;1.60;;;;;;;14.14;32.76;99681.88;5140740;27;20213;-78
2022/02/18 08:39:32;;;;;;;14.73;2.10;;;;;;;14.02;31.06;99678.06;5138742;28;20035;-78
2022/02/18 08:41:58;;;;;;;15.70;2.13;;;;;;;13.93;31.06;99677.31;5140299;27;20039;-78
2022/02/18 08:44:23;;;;;;;18.30;1.50;;;;;;;13.83;30.95;99676.78;5137769;27;20037;-78
2022/02/18 08:46:49;;;;;;;12.93;2.00;;;;;;;14.04;31.09;99684.84;5139780;27;20031;-78
2022/02/18 08:49:14;;;;;;;12.25;1.60;;;;;;;13.83;31.25;99674.13;5139274;27;20083;-79
2022/02/18 08:51:40;;;;;;;12.90;1.38;;;;;;;14.10;30.87;99691.25;5140480;27;20035;-78
2022/02/18 08:54:06;;;;;;;16.73;1.88;;;;;;;14.05;29.27;99696.31;5144016;27;20073;-78
2022/02/18 08:56:32;;;;;;;22.98;1.38;;;;;;;13.90;29.41;99682.19;5144429;27;20867;-77
2022/02/18 08:58:58;;;;;;;19.40;1.95;;;;;;;14.05;29.90;99677.69;5144168;27;20042;-78
2022/02/18 09:01:27;;;;;;;27.38;2.30;;;;;;;13.95;29.90;99688.63;5142543;27;20039;-78
2022/02/18 09:03:53;;;;;;;6.10;1.13;;;;;;;14.10;30.12;99667.31;5143835;27;20031;-78
2022/02/18 09:06:19;;;;;;;5.55;0.82;;;;;;;14.35;29.22;99683.78;5141907;27;20032;-78
2022/02/18 09:08:44;;;;;;;19.40;1.70;;;;;;;14.49;29.86;99701.59;5141975;27;20257;-78
2022/02/18 09:11:10;;;;;;;1.73;0.90;;;;;;;14.36;29.95;99683.59;5142602;27;20030;-78
2022/02/18 09:13:35;;;;;;;13.43;1.50;;;;;;;14.24;30.73;99677.09;5141973;27;20306;-78
2022/02/18 09:16:00;;;;;;;8.52;1.15;;;;;;;14.18;30.14;99683.16;5142357;27;20221;-78
2022/02/18 09:18:26;;;;;;;3.35;0.90;;;;;;;14.28;29.89;99682.88;5141959;27;20038;-78
2022/02/18 09:20:51;;;;;;;4.78;1.42;;;;;;;14.60;30.01;99702.97;5142756;27;20038;-78
2022/02/18 09:23:17;;;;;;;7.00;1.65;;;;;;;14.49;29.69;99711.41;5143437;27;20082;-78
2022/02/18 09:25:43;;;;;;;23.67;1.48;;;;;;;14.21;30.19;99704.09;5143319;27;20286;-78
2022/02/18 09:28:09;;;;;;;7.78;1.58;;;;;;;14.29;29.83;99695.19;5141687;27;20022;-78
2022/02/18 09:30:40;;;;;;;6.55;1.50;;;;;;;14.26;29.45;99682.22;5143196;27;20103;-78
2022/02/18 09:33:06;;;;;;;7.70;1.63;;;;;;;14.67;30.50;99695.84;5136434;27;20029;-78
2022/02/18 09:35:31;;;;;;;6.22;1.42;;;;;;;14.81;29.53;99696.81;5138210;27;20106;-79
2022/02/18 09:37:57;;;;;;;14.02;1.45;;;;;;;14.63;29.37;99697.25;5135925;27;20237;-78
2022/02/18 09:40:22;;;;;;;9.63;2.20;;;;;;;14.55;30.08;99676.84;5137462;27;20336;-78
2022/02/18 09:42:49;;;;;;;10.60;1.55;;;;;;;14.63;29.60;99700.75;5136892;27;20158;-77
2022/02/18 09:45:15;;;;;;;8.63;1.65;;;;;;;14.60;29.46;99685.13;5134877;27;20026;-78
2022/02/18 09:47:42;;;;;;;4.70;1.60;;;;;;;14.90;29.03;99691.16;5137341;27;20252;-77
2022/02/18 09:50:09;;;;;;;7.20;1.83;;;;;;;15.18;28.79;99688.53;5136327;27;20027;-77
2022/02/18 09:52:35;;;;;;;14.38;1.70;;;;;;;15.06;28.20;99678.56;5137211;27;20204;-77
2022/02/18 09:55:01;;;;;;;6.88;2.00;;;;;;;14.92;28.19;99664.31;5136582;27;20039;-77
2022/02/18 09:57:26;;;;;;;7.00;1.10;;;;;;;14.95;27.82;99670.09;5135567;27;20646;-77
2022/02/18 09:59:52;;;;;;;9.90;2.38;;;;;;;14.77;26.67;99659.06;5135997;27;20232;-78
2022/02/18 10:02:19;;;;;;;5.32;1.80;;;;;;;14.80;25.55;99655.19;5136110;27;20035;-78
2022/02/18 10:04:44;;;;;;;17.10;4.93;;;;;;;14.37;27.75;99642.63;5135524;27;20038;-77
2022/02/18 10:07:10;;;;;;;11.25;3.30;;;;;;;14.65;26.59;99648.09;5135878;27;20019;-77
2022/02/18 10:09:40;;;;;;;7.57;1.10;;;;;;;14.72;25.01;99634.81;5135151;27;20054;-77
2022/02/18 10:12:08;;;;;;;9.25;0.85;;;;;;;14.77;23.90;99640.41;5135891;27;20053;-77
2022/02/18 10:14:53;;;;;;;8.20;0.90;;;;;;;14.80;24.17;99642.69;5137121;27;20031;-77
2022/02/18 10:17:23;;;;;;;7.75;0.80;;;;;;;14.73;24.20;99643.63;5137001;27;20050;-78
2022/02/18 10:19:54;;;;;;;6.25;0.80;;;;;;;14.78;24.50;99639.38;5134982;27;20236;-78
2022/02/18 10:22:28;;;;;;;4.38;0.80;;;;;;;14.57;23.68;99632.22;5136332;27;20026;-78
2022/02/18 10:24:54;;;;;;;3.20;0.77;;;;;;;14.84;23.96;99627.13;5137250;27;20035;-78
2022/02/18 10:27:22;;;;;;;6.68;1.20;;;;;;;14.85;22.73;99631.44;5136270;27;20041;-78
2022/02/18 10:29:59;;;;;;;7.03;0.80;;;;;;;14.68;23.56;99596.25;5134292;27;20039;-78
2022/02/18 10:32:25;;;;;;;9.50;1.20;;;;;;;14.75;24.28;99621.09;5134035;27;20027;-78
2022/02/18 10:35:00;;;;;;;4.45;0.68;;;;;;;14.68;23.35;99630.88;5136120;27;20056;-78
2022/02/18 10:37:31;;;;;;;7.05;1.00;;;;;;;14.61;24.13;99630.81;5135749;27;20102;-78
2022/02/18 10:40:10;;;;;;;6.07;0.90;;;;;;;14.69;23.91;99633.34;5135122;27;20742;-78
2022/02/18 10:42:39;;;;;;;5.20;1.35;;;;;;;14.56;23.76;99633.19;5135134;27;20031;-78
2022/02/18 10:45:18;;;;;;;9.40;1.77;;;;;;;14.58;24.30;99635.72;5135460;27;20035;-77
2022/02/18 10:47:46;;;;;;;14.13;2.60;;;;;;;14.74;24.04;99647.94;5147278;27;20023;-78
2022/02/18 10:50:26;;;;;;;7.22;1.00;;;;;;;14.81;23.60;99625.66;5137087;27;20027;-78
2022/02/18 10:53:16;;;;;;;4.35;1.00;;;;;;;14.76;23.83;99635.25;5135359;27;20244;-78
2022/02/18 10:55:59;;;;;;;1.88;0.80;;;;;;;14.73;23.72;99635.63;5135292;27;20031;-79
2022/02/18 10:58:27;;;;;;;7.15;2.20;;;;;;;14.55;24.33;99618.22;5136758;27;20319;-78
2022/02/18 11:01:14;;;;;;;11.60;2.50;;;;;;;14.76;24.19;99641.41;5137918;27;20151;-78
2022/02/18 11:03:44;;;;;;;5.63;2.13;;;;;;;14.77;24.30;99636.91;5085519;27;20038;-78
2022/02/18 11:06:17;;;;;;;5.43;1.38;;;;;;;14.91;23.72;99628.00;5138831;27;20072;-77
2022/02/18 11:08:57;;;;;;;8.05;2.63;;;;;;;14.64;24.12;99633.09;5135655;27;20047;-78
2022/02/18 11:11:28;;;;;;;8.07;2.05;;;;;;;14.83;24.63;99626.31;5139688;27;20026;-78
2022/02/18 11:13:54;;;;;;;5.78;1.30;;;;;;;14.90;24.07;99647.69;5140538;27;20039;-78
2022/02/18 11:16:21;;;;;;;7.10;1.85;;;;;;;14.55;24.16;99631.56;5140986;27;20027;-78
2022/02/18 11:18:47;;;;;;;8.35;1.70;;;;;;;14.60;24.39;99637.16;5139856;27;20026;-78
2022/02/18 11:21:14;;;;;;;6.07;1.92;;;;;;;14.69;25.05;99628.03;5140494;27;20037;-78
2022/02/18 11:23:43;;;;;;;11.63;2.53;;;;;;;14.78;24.83;99614.56;5140154;27;20071;-78
2022/02/18 11:26:17;;;;;;;8.10;2.15;;;;;;;14.60;24.75;99628.34;5140180;27;20225;-78